Time;durP1;ratioP1;P1;durP2;ratioP2;P2;SDS_P1;SDS_P2;PMS_P1;PMS_P2;Temp;Humidity;BMP_temperature;BMP_pressure;BME280_temperature;BME280_humidity;BME280_pressure;Samples;Min_cycle;Max_cycle;Signal;HPM_P1;HPM_P2
2021/04/14 05:25:18;;;;;;;7.18;4.35;;;;;;;;;;5114967;23;20120;-61
2021/04/14 05:27:44;;;;;;;4.80;3.55;;;;;;;;;;4990216;28;20028;-61
2021/04/14 05:30:12;;;;;;;5.18;3.63;;;;;;;;;;4990872;28;20027;-69
2021/04/14 05:32:38;;;;;;;4.57;3.47;;;;;;;;;;4956887;28;20505;-68
2021/04/14 05:35:08;;;;;;;5.95;4.03;;;;;;;;;;4973099;28;20034;-70
2021/04/14 05:37:34;;;;;;;6.50;4.22;;;;;;;;;;4972749;28;20027;-65
2021/04/14 05:40:00;;;;;;;4.78;3.80;;;;;;;;;;4973691;28;20495;-68
2021/04/14 05:42:26;;;;;;;5.47;3.92;;;;;;;;;;4972986;28;20077;-67
2021/04/14 05:44:52;;;;;;;6.63;4.20;;;;;;;;;;4990654;28;20030;-64
2021/04/14 05:47:18;;;;;;;5.05;3.60;;;;;;;;;;4991115;28;20088;-62
2021/04/14 05:49:44;;;;;;;4.88;3.40;;;;;;;;;;4998034;28;20030;-66
2021/04/14 05:52:11;;;;;;;5.50;3.42;;;;;;;;;;4990469;28;20026;-65
2021/04/14 05:54:37;;;;;;;5.03;3.30;;;;;;;;;;4995040;28;20147;-68
2021/04/14 05:57:03;;;;;;;5.38;3.28;;;;;;;;;;4973336;28;20488;-68
2021/04/14 05:59:29;;;;;;;4.65;3.30;;;;;;;;;;4991625;28;20496;-68
2021/04/14 06:01:55;;;;;;;6.72;3.70;;;;;;;;;;4990778;28;20025;-63
2021/04/14 06:04:23;;;;;;;5.90;3.60;;;;;;;;;;4990957;28;20032;-66
2021/04/14 06:06:49;;;;;;;5.95;3.72;;;;;;;;;;4992632;28;20065;-67
2021/04/14 06:09:16;;;;;;;4.40;3.10;;;;;;;;;;4995795;28;20048;-67
2021/04/14 06:11:42;;;;;;;4.45;3.38;;;;;;;;;;4977049;28;20042;-67
2021/04/14 06:14:08;;;;;;;4.30;3.47;;;;;;;;;;4995638;28;20034;-66
2021/04/14 06:16:34;;;;;;;4.80;3.60;;;;;;;;;;4977286;28;20026;-65
2021/04/14 06:19:00;;;;;;;4.53;3.20;;;;;;;;;;4977465;28;20034;-65
2021/04/14 06:21:27;;;;;;;4.50;3.15;;;;;;;;;;4994111;28;20106;-63
2021/04/14 06:23:53;;;;;;;4.60;3.50;;;;;;;;;;4994410;28;20069;-63
2021/04/14 06:26:29;;;;;;;3.85;3.40;;;;;;;;;;4994245;28;20070;-65
2021/04/14 06:28:55;;;;;;;5.90;3.50;;;;;;;;;;4994319;28;20389;-62
2021/04/14 06:31:39;;;;;;;4.28;3.25;;;;;;;;;;4994620;28;20030;-68
2021/04/14 06:34:11;;;;;;;6.40;4.05;;;;;;;;;;4995209;28;20019;-64
2021/04/14 06:36:37;;;;;;;3.27;2.57;;;;;;;;;;4994626;28;20470;-65
2021/04/14 06:39:05;;;;;;;4.88;3.33;;;;;;;;;;4995244;28;20031;-67
2021/04/14 06:44:21;;;;;;;4.50;3.17;;;;;;;;;;4995123;28;20057;-64
2021/04/14 06:46:49;;;;;;;8.20;2.75;;;;;;;;;;4994416;28;20041;-63
2021/04/14 06:49:18;;;;;;;3.95;3.30;;;;;;;;;;4996529;28;20555;-63
2021/04/14 06:51:44;;;;;;;3.75;3.10;;;;;;;;;;4983236;28;20014;-63
2021/04/14 06:54:29;;;;;;;4.93;3.10;;;;;;;;;;5002759;28;20369;-65
2021/04/14 06:56:57;;;;;;;3.58;2.63;;;;;;;;;;5002744;28;20022;-65
2021/04/14 06:59:25;;;;;;;4.97;3.50;;;;;;;;;;5001549;28;20019;-63
2021/04/14 07:01:58;;;;;;;4.25;3.10;;;;;;;;;;4985097;28;20026;-65
2021/04/14 07:04:28;;;;;;;5.30;3.53;;;;;;;;;;4999122;28;20018;-63
2021/04/14 07:06:54;;;;;;;4.88;3.47;;;;;;;;;;5003035;28;20030;-63
2021/04/14 07:09:35;;;;;;;4.57;3.45;;;;;;;;;;5007091;28;20440;-65
2021/04/14 07:12:02;;;;;;;5.75;3.92;;;;;;;;;;5005224;28;20101;-63
2021/04/14 07:14:29;;;;;;;6.07;3.63;;;;;;;;;;5001402;28;20026;-68
2021/04/14 07:16:55;;;;;;;6.07;3.67;;;;;;;;;;4994731;28;20026;-68
2021/04/14 07:19:41;;;;;;;5.15;3.83;;;;;;;;;;4975726;28;20034;-67
2021/04/14 07:22:27;;;;;;;5.15;3.20;;;;;;;;;;4993610;28;20098;-70
2021/04/14 07:24:59;;;;;;;13.50;2.80;;;;;;;;;;4992670;28;20472;-68
2021/04/14 07:27:40;;;;;;;5.57;3.20;;;;;;;;;;4976744;28;20031;-70
2021/04/14 07:30:18;;;;;;;6.45;3.35;;;;;;;;;;4993780;28;20061;-70
2021/04/14 07:32:50;;;;;;;7.00;3.45;;;;;;;;;;4975680;28;20030;-70
2021/04/14 07:35:16;;;;;;;;;;;;;;;;;;4994442;28;20046;-70
2021/04/14 07:37:58;;;;;;;4.00;2.83;;;;;;;;;;4993686;28;19979;-65
2021/04/14 07:40:35;;;;;;;4.43;2.97;;;;;;;;;;4993791;28;20026;-65
2021/04/14 07:43:07;;;;;;;5.30;3.35;;;;;;;;;;4993363;28;20031;-66
2021/04/14 07:45:35;;;;;;;5.95;3.70;;;;;;;;;;4993325;28;20046;-64
2021/04/14 07:48:07;;;;;;;5.20;3.63;;;;;;;;;;4993966;28;20062;-70
2021/04/14 07:50:38;;;;;;;5.70;3.70;;;;;;;;;;4993969;28;20073;-61
2021/04/14 07:53:15;;;;;;;4.40;3.05;;;;;;;;;;4995811;28;20033;-72
2021/04/14 07:55:41;;;;;;;5.78;3.53;;;;;;;;;;5001946;28;20026;-72
2021/04/14 07:58:09;;;;;;;5.10;3.60;;;;;;;;;;5001663;28;20098;-73
2021/04/14 08:00:38;;;;;;;4.88;3.08;;;;;;;;;;5003085;28;20337;-73
2021/04/14 08:03:14;;;;;;;6.07;3.35;;;;;;;;;;5003216;28;20461;-74
2021/04/14 08:05:40;;;;;;;5.65;3.70;;;;;;;;;;5001161;28;20041;-64
2021/04/14 08:08:14;;;;;;;4.80;3.25;;;;;;;;;;4983084;28;20030;-68
2021/04/14 08:10:40;;;;;;;5.03;3.70;;;;;;;;;;5000256;28;20069;-64
2021/04/14 20:30:32;;;;;;;17.00;12.15;;;;;;;;;;5106794;27;20392;-71
2021/04/14 20:32:58;;;;;;;16.45;12.95;;;;;;;;;;5105657;28;20081;-65
2021/04/14 20:35:24;;;;;;;20.60;14.45;;;;;;;;;;5100905;28;20038;-70
2021/04/14 20:37:50;;;;;;;17.52;13.73;;;;;;;;;;5092286;28;20028;-71
2021/04/14 20:40:17;;;;;;;16.98;13.27;;;;;;;;;;5105389;28;20064;-68
2021/04/14 20:42:43;;;;;;;20.80;14.70;;;;;;;;;;5101522;28;20093;-71
2021/04/14 20:45:09;;;;;;;17.60;13.93;;;;;;;;;;5097273;28;20032;-75
2021/04/14 20:47:35;;;;;;;18.33;14.38;;;;;;;;;;5092361;28;20025;-66
2021/04/14 20:50:02;;;;;;;18.05;13.90;;;;;;;;;;5087595;28;20086;-69
2021/04/14 20:52:28;;;;;;;16.45;13.30;;;;;;;;;;5105892;28;20514;-73
2021/04/14 20:54:54;;;;;;;17.42;14.18;;;;;;;;;;5107171;28;20524;-72
2021/04/14 20:57:20;;;;;;;17.17;13.48;;;;;;;;;;5105654;28;20027;-67
2021/04/14 20:59:46;;;;;;;19.92;14.10;;;;;;;;;;5106777;28;20126;-69
2021/04/14 21:02:12;;;;;;;19.42;14.07;;;;;;;;;;5106456;28;20015;-68
2021/04/14 21:04:38;;;;;;;17.70;13.48;;;;;;;;;;5106879;28;20495;-77
2021/04/14 21:07:06;;;;;;;19.63;13.55;;;;;;;;;;5107276;28;20410;-77
2021/04/14 21:09:32;;;;;;;16.10;13.73;;;;;;;;;;5107655;28;20016;-70
2021/04/14 21:11:58;;;;;;;18.15;13.25;;;;;;;;;;5107809;28;20027;-75
2021/04/14 21:14:27;;;;;;;17.98;13.43;;;;;;;;;;5106949;28;20020;-67
2021/04/14 21:16:53;;;;;;;17.00;13.65;;;;;;;;;;5109070;28;20095;-74
2021/04/14 21:19:22;;;;;;;17.08;13.55;;;;;;;;;;5107880;28;20032;-73
2021/04/14 21:21:48;;;;;;;17.30;13.45;;;;;;;;;;5107620;28;20028;-75
2021/04/14 21:24:14;;;;;;;16.25;13.40;;;;;;;;;;5107391;28;20098;-73
2021/04/14 21:26:40;;;;;;;16.88;13.45;;;;;;;;;;5107526;28;20038;-70
2021/04/14 21:29:06;;;;;;;20.60;13.93;;;;;;;;;;5107443;28;20063;-71
2021/04/14 21:31:35;;;;;;;16.48;13.02;;;;;;;;;;5107912;28;20019;-71
2021/04/14 21:34:01;;;;;;;17.15;13.80;;;;;;;;;;5107399;28;20027;-72
2021/04/14 21:36:27;;;;;;;17.38;13.73;;;;;;;;;;5107297;28;20051;-71
2021/04/14 21:38:53;;;;;;;18.45;13.57;;;;;;;;;;5107320;28;20043;-71
2021/04/14 21:41:20;;;;;;;19.05;14.27;;;;;;;;;;5096668;28;20020;-67
2021/04/14 21:43:46;;;;;;;17.83;13.32;;;;;;;;;;5093536;28;20020;-71
2021/04/14 21:46:12;;;;;;;18.70;14.20;;;;;;;;;;5093593;28;20024;-65
2021/04/14 21:48:38;;;;;;;18.88;14.15;;;;;;;;;;5093671;28;20032;-71
2021/04/14 21:51:05;;;;;;;17.65;13.55;;;;;;;;;;5093904;28;20020;-69
2021/04/14 21:53:31;;;;;;;18.65;13.65;;;;;;;;;;5093679;28;20058;-71
2021/04/14 21:55:57;;;;;;;17.38;13.80;;;;;;;;;;5092274;28;20077;-69
2021/04/14 21:58:23;;;;;;;16.17;13.82;;;;;;;;;;5092182;28;20411;-67
2021/04/14 22:00:50;;;;;;;18.45;13.73;;;;;;;;;;5093428;28;20063;-72
2021/04/14 22:03:18;;;;;;;18.23;13.20;;;;;;;;;;5093574;28;20020;-71
2021/04/14 22:05:44;;;;;;;18.45;13.85;;;;;;;;;;5093466;28;20024;-72
2021/04/14 22:08:11;;;;;;;16.90;12.93;;;;;;;;;;5093097;28;20065;-71
2021/04/14 22:10:38;;;;;;;15.18;12.88;;;;;;;;;;5092531;28;20028;-71
2021/04/14 22:13:05;;;;;;;18.38;13.13;;;;;;;;;;5093022;28;20032;-72
2021/04/14 22:15:31;;;;;;;16.67;13.35;;;;;;;;;;5092900;28;20032;-70
2021/04/14 22:17:58;;;;;;;15.52;11.80;;;;;;;;;;5092532;28;20103;-67
2021/04/14 22:20:26;;;;;;;16.95;12.55;;;;;;;;;;5093186;28;20123;-71
2021/04/14 22:22:52;;;;;;;15.98;12.55;;;;;;;;;;5093050;28;20486;-67
2021/04/14 22:25:20;;;;;;;17.63;13.27;;;;;;;;;;5092572;28;20503;-70
2021/04/14 22:27:46;;;;;;;17.63;12.40;;;;;;;;;;5092883;28;20020;-67
2021/04/14 22:30:15;;;;;;;16.80;12.48;;;;;;;;;;5092328;28;20404;-67
2021/04/14 22:32:41;;;;;;;15.60;11.60;;;;;;;;;;5092733;28;20024;-70
2021/04/14 22:35:07;;;;;;;16.65;12.00;;;;;;;;;;5092486;28;20016;-67
2021/04/14 22:37:34;;;;;;;14.13;11.45;;;;;;;;;;5092409;28;20024;-70
2021/04/14 22:40:00;;;;;;;16.02;11.50;;;;;;;;;;5092024;28;20503;-69
2021/04/14 22:42:26;;;;;;;16.67;11.95;;;;;;;;;;5092296;28;20022;-70
2021/04/14 22:44:52;;;;;;;14.05;11.95;;;;;;;;;;5092766;28;20387;-70
2021/04/14 22:47:18;;;;;;;16.35;12.38;;;;;;;;;;5092552;28;20028;-69
2021/04/14 22:49:44;;;;;;;15.93;12.05;;;;;;;;;;5091869;28;20032;-67
2021/04/14 22:52:12;;;;;;;16.05;11.43;;;;;;;;;;5091704;28;20031;-68
2021/04/14 22:54:38;;;;;;;13.63;10.70;;;;;;;;;;5086351;28;20024;-71
2021/04/14 22:57:05;;;;;;;17.23;11.77;;;;;;;;;;5090820;28;20028;-70
2021/04/14 22:59:31;;;;;;;15.25;11.27;;;;;;;;;;5092256;28;20101;-69
2021/04/14 23:01:57;;;;;;;15.63;11.00;;;;;;;;;;5092456;28;20073;-71
2021/04/14 23:04:23;;;;;;;15.52;11.57;;;;;;;;;;5092315;28;20103;-71
2021/04/14 23:06:49;;;;;;;13.88;10.60;;;;;;;;;;5092096;28;20036;-69
2021/04/14 23:09:15;;;;;;;15.00;10.90;;;;;;;;;;5090831;28;20421;-67
2021/04/14 23:11:41;;;;;;;15.02;10.57;;;;;;;;;;5092222;28;20028;-69
2021/04/14 23:14:07;;;;;;;13.60;10.27;;;;;;;;;;5092060;28;20107;-69
2021/04/14 23:16:33;;;;;;;13.38;10.52;;;;;;;;;;5092022;28;20020;-67
2021/04/14 23:18:59;;;;;;;16.30;10.60;;;;;;;;;;5091781;28;20125;-66
2021/04/14 23:21:27;;;;;;;16.02;10.60;;;;;;;;;;5092243;28;20055;-69
2021/04/14 23:23:54;;;;;;;14.40;10.02;;;;;;;;;;5091923;28;20020;-71
2021/04/14 23:26:20;;;;;;;15.93;10.45;;;;;;;;;;5091764;28;20024;-70
2021/04/14 23:28:46;;;;;;;14.45;9.85;;;;;;;;;;5091520;28;20080;-66
2021/04/14 23:31:12;;;;;;;14.38;9.55;;;;;;;;;;5091928;28;20070;-66
2021/04/14 23:33:38;;;;;;;15.02;10.23;;;;;;;;;;5091578;28;20017;-66
2021/04/14 23:36:05;;;;;;;14.65;9.73;;;;;;;;;;5091876;28;20047;-70
2021/04/14 23:38:31;;;;;;;11.82;9.52;;;;;;;;;;5091538;28;20111;-70
2021/04/14 23:40:57;;;;;;;13.45;9.50;;;;;;;;;;5091654;28;20565;-67
2021/04/14 23:43:24;;;;;;;15.18;9.82;;;;;;;;;;5091495;28;20103;-67
2021/04/14 23:45:50;;;;;;;14.88;9.88;;;;;;;;;;5091546;28;20391;-67
2021/04/14 23:48:17;;;;;;;15.77;10.05;;;;;;;;;;5089803;28;20032;-71
2021/04/14 23:50:45;;;;;;;14.48;10.07;;;;;;;;;;5091199;28;20033;-70
2021/04/14 23:53:12;;;;;;;14.85;9.80;;;;;;;;;;5091344;28;20099;-71
2021/04/14 23:55:38;;;;;;;14.35;10.07;;;;;;;;;;5091549;28;20475;-71
2021/04/14 23:58:06;;;;;;;13.80;10.10;;;;;;;;;;5091306;28;20081;-70
